sensor_id;sensor_type;location;lat;lon;timestamp;P1;durP1;ratioP1;P2;durP2;ratioP2
16177;SDS011;8195;51.220;9.746;2023-02-15T00:08:14;18.55;;;13.68;;
16177;SDS011;8195;51.220;9.746;2023-02-15T00:18:14;16.73;;;13.00;;
16177;SDS011;8195;51.220;9.746;2023-02-15T00:28:15;16.45;;;12.40;;
16177;SDS011;8195;51.220;9.746;2023-02-15T00:38:15;13.23;;;10.60;;
16177;SDS011;8195;51.220;9.746;2023-02-15T00:48:16;14.73;;;11.57;;
16177;SDS011;8195;51.220;9.746;2023-02-15T00:58:17;13.43;;;11.27;;
16177;SDS011;8195;51.220;9.746;2023-02-15T01:08:18;11.33;;;9.57;;
16177;SDS011;8195;51.220;9.746;2023-02-15T01:18:18;14.27;;;11.55;;
16177;SDS011;8195;51.220;9.746;2023-02-15T01:28:19;11.75;;;10.23;;
16177;SDS011;8195;51.220;9.746;2023-02-15T01:38:19;13.73;;;11.20;;
16177;SDS011;8195;51.220;9.746;2023-02-15T01:48:24;13.23;;;10.13;;
16177;SDS011;8195;51.220;9.746;2023-02-15T01:58:27;12.03;;;9.80;;
16177;SDS011;8195;51.220;9.746;2023-02-15T02:08:30;11.47;;;9.43;;
16177;SDS011;8195;51.220;9.746;2023-02-15T02:39:41;12.07;;;9.97;;
16177;SDS011;8195;51.220;9.746;2023-02-15T02:49:57;14.23;;;10.87;;
16177;SDS011;8195;51.220;9.746;2023-02-15T02:59:59;13.07;;;10.17;;
16177;SDS011;8195;51.220;9.746;2023-02-15T03:10:04;15.10;;;9.97;;
16177;SDS011;8195;51.220;9.746;2023-02-15T03:20:09;15.80;;;9.73;;
16177;SDS011;8195;51.220;9.746;2023-02-15T03:30:15;72.37;;;19.03;;
16177;SDS011;8195;51.220;9.746;2023-02-15T03:40:19;47.27;;;15.93;;
16177;SDS011;8195;51.220;9.746;2023-02-15T03:50:29;29.27;;;13.50;;
16177;SDS011;8195;51.220;9.746;2023-02-15T04:00:33;15.17;;;11.00;;
16177;SDS011;8195;51.220;9.746;2023-02-15T04:10:37;18.47;;;10.63;;
16177;SDS011;8195;51.220;9.746;2023-02-15T04:20:38;14.20;;;10.33;;
16177;SDS011;8195;51.220;9.746;2023-02-15T04:30:38;16.08;;;9.77;;
16177;SDS011;8195;51.220;9.746;2023-02-15T04:40:39;13.65;;;9.32;;
16177;SDS011;8195;51.220;9.746;2023-02-15T04:50:39;20.77;;;18.98;;
16177;SDS011;8195;51.220;9.746;2023-02-15T05:00:40;10.50;;;9.10;;
16177;SDS011;8195;51.220;9.746;2023-02-15T05:10:40;11.52;;;8.80;;
16177;SDS011;8195;51.220;9.746;2023-02-15T05:20:41;11.20;;;8.73;;
16177;SDS011;8195;51.220;9.746;2023-02-15T05:30:42;13.27;;;8.63;;
16177;SDS011;8195;51.220;9.746;2023-02-15T05:40:42;28.88;;;10.00;;
16177;SDS011;8195;51.220;9.746;2023-02-15T05:50:43;11.57;;;8.67;;
16177;SDS011;8195;51.220;9.746;2023-02-15T06:00:44;23.43;;;9.97;;
16177;SDS011;8195;51.220;9.746;2023-02-15T06:11:09;56.03;;;12.80;;
16177;SDS011;8195;51.220;9.746;2023-02-15T06:21:40;35.77;;;11.07;;
16177;SDS011;8195;51.220;9.746;2023-02-15T06:42:55;26.80;;;10.67;;
16177;SDS011;8195;51.220;9.746;2023-02-15T06:53:38;18.77;;;9.90;;
16177;SDS011;8195;51.220;9.746;2023-02-15T07:25:31;27.47;;;9.73;;
16177;SDS011;8195;51.220;9.746;2023-02-15T07:35:32;29.60;;;10.17;;
16177;SDS011;8195;51.220;9.746;2023-02-15T07:45:33;42.27;;;10.97;;
16177;SDS011;8195;51.220;9.746;2023-02-15T07:55:33;30.00;;;10.10;;
16177;SDS011;8195;51.220;9.746;2023-02-15T08:05:34;146.80;;;23.83;;
16177;SDS011;8195;51.220;9.746;2023-02-15T08:15:34;60.13;;;15.40;;
16177;SDS011;8195;51.220;9.746;2023-02-15T08:25:35;43.30;;;14.68;;
16177;SDS011;8195;51.220;9.746;2023-02-15T08:35:35;62.72;;;14.40;;
16177;SDS011;8195;51.220;9.746;2023-02-15T08:45:36;90.47;;;17.55;;
16177;SDS011;8195;51.220;9.746;2023-02-15T08:55:37;100.38;;;20.42;;
16177;SDS011;8195;51.220;9.746;2023-02-15T09:05:37;78.93;;;16.88;;
16177;SDS011;8195;51.220;9.746;2023-02-15T09:15:38;56.20;;;15.98;;
16177;SDS011;8195;51.220;9.746;2023-02-15T09:25:38;48.47;;;14.98;;
16177;SDS011;8195;51.220;9.746;2023-02-15T09:35:39;30.50;;;13.88;;
16177;SDS011;8195;51.220;9.746;2023-02-15T09:45:49;88.95;;;21.52;;
16177;SDS011;8195;51.220;9.746;2023-02-15T10:06:36;32.60;;;14.47;;
16177;SDS011;8195;51.220;9.746;2023-02-15T10:26:56;20.03;;;13.93;;
16177;SDS011;8195;51.220;9.746;2023-02-15T10:57:53;25.00;;;15.50;;
16177;SDS011;8195;51.220;9.746;2023-02-15T11:07:56;19.43;;;14.17;;
16177;SDS011;8195;51.220;9.746;2023-02-15T11:18:08;18.27;;;13.97;;
16177;SDS011;8195;51.220;9.746;2023-02-15T11:28:34;52.47;;;18.43;;
16177;SDS011;8195;51.220;9.746;2023-02-15T11:38:39;29.73;;;16.07;;
16177;SDS011;8195;51.220;9.746;2023-02-15T11:48:41;19.70;;;16.07;;
16177;SDS011;8195;51.220;9.746;2023-02-15T11:58:44;19.13;;;13.90;;
16177;SDS011;8195;51.220;9.746;2023-02-15T12:08:51;27.47;;;16.07;;
16177;SDS011;8195;51.220;9.746;2023-02-15T12:19:32;18.33;;;14.67;;
16177;SDS011;8195;51.220;9.746;2023-02-15T12:29:40;17.40;;;14.80;;
16177;SDS011;8195;51.220;9.746;2023-02-15T12:40:18;17.97;;;14.10;;
16177;SDS011;8195;51.220;9.746;2023-02-15T12:50:22;19.00;;;14.97;;
16177;SDS011;8195;51.220;9.746;2023-02-15T13:00:27;19.20;;;13.93;;
16177;SDS011;8195;51.220;9.746;2023-02-15T13:10:36;17.00;;;12.53;;
16177;SDS011;8195;51.220;9.746;2023-02-15T13:20:40;16.13;;;12.93;;
16177;SDS011;8195;51.220;9.746;2023-02-15T13:30:43;17.50;;;13.73;;
16177;SDS011;8195;51.220;9.746;2023-02-15T13:40:48;18.33;;;13.93;;
16177;SDS011;8195;51.220;9.746;2023-02-15T14:01:07;17.50;;;14.03;;
16177;SDS011;8195;51.220;9.746;2023-02-15T14:21:42;17.20;;;13.37;;
16177;SDS011;8195;51.220;9.746;2023-02-15T14:31:47;19.73;;;15.17;;
16177;SDS011;8195;51.220;9.746;2023-02-15T14:41:53;18.53;;;14.83;;
16177;SDS011;8195;51.220;9.746;2023-02-15T14:52:00;21.13;;;16.60;;
16177;SDS011;8195;51.220;9.746;2023-02-15T15:22:25;22.23;;;17.13;;
16177;SDS011;8195;51.220;9.746;2023-02-15T15:32:27;24.20;;;18.00;;
16177;SDS011;8195;51.220;9.746;2023-02-15T15:52:58;22.73;;;17.53;;
16177;SDS011;8195;51.220;9.746;2023-02-15T16:03:00;24.47;;;18.47;;
16177;SDS011;8195;51.220;9.746;2023-02-15T16:13:01;20.30;;;16.43;;
16177;SDS011;8195;51.220;9.746;2023-02-15T16:33:36;22.33;;;18.07;;
16177;SDS011;8195;51.220;9.746;2023-02-15T16:43:38;21.87;;;17.07;;
16177;SDS011;8195;51.220;9.746;2023-02-15T16:53:40;30.17;;;25.00;;
16177;SDS011;8195;51.220;9.746;2023-02-15T17:03:50;26.80;;;23.93;;
16177;SDS011;8195;51.220;9.746;2023-02-15T17:24:04;23.60;;;16.97;;
16177;SDS011;8195;51.220;9.746;2023-02-15T17:34:05;22.53;;;17.23;;
16177;SDS011;8195;51.220;9.746;2023-02-15T17:44:06;24.77;;;18.50;;
16177;SDS011;8195;51.220;9.746;2023-02-15T17:54:07;23.50;;;19.33;;
16177;SDS011;8195;51.220;9.746;2023-02-15T18:04:12;24.07;;;18.60;;
16177;SDS011;8195;51.220;9.746;2023-02-15T18:14:14;25.53;;;18.43;;
16177;SDS011;8195;51.220;9.746;2023-02-15T18:24:19;24.60;;;18.57;;
16177;SDS011;8195;51.220;9.746;2023-02-15T18:34:26;23.57;;;17.43;;
16177;SDS011;8195;51.220;9.746;2023-02-15T18:44:29;22.07;;;17.17;;
16177;SDS011;8195;51.220;9.746;2023-02-15T18:54:30;24.08;;;18.45;;
16177;SDS011;8195;51.220;9.746;2023-02-15T19:04:31;26.80;;;20.67;;
16177;SDS011;8195;51.220;9.746;2023-02-15T19:14:31;27.10;;;20.13;;
16177;SDS011;8195;51.220;9.746;2023-02-15T19:24:39;28.95;;;20.45;;
16177;SDS011;8195;51.220;9.746;2023-02-15T19:34:41;26.73;;;19.83;;
16177;SDS011;8195;51.220;9.746;2023-02-15T19:44:42;27.37;;;19.97;;
16177;SDS011;8195;51.220;9.746;2023-02-15T19:54:43;31.40;;;22.02;;
16177;SDS011;8195;51.220;9.746;2023-02-15T20:04:43;30.97;;;21.37;;
16177;SDS011;8195;51.220;9.746;2023-02-15T20:14:44;28.92;;;21.08;;
16177;SDS011;8195;51.220;9.746;2023-02-15T20:24:45;31.73;;;23.25;;
16177;SDS011;8195;51.220;9.746;2023-02-15T20:34:45;70.33;;;24.97;;
16177;SDS011;8195;51.220;9.746;2023-02-15T20:44:46;50.85;;;24.63;;
16177;SDS011;8195;51.220;9.746;2023-02-15T20:54:46;96.97;;;26.73;;
16177;SDS011;8195;51.220;9.746;2023-02-15T21:04:47;79.07;;;25.30;;
16177;SDS011;8195;51.220;9.746;2023-02-15T21:14:48;108.33;;;28.63;;
16177;SDS011;8195;51.220;9.746;2023-02-15T21:24:49;84.88;;;26.13;;
16177;SDS011;8195;51.220;9.746;2023-02-15T21:34:51;37.40;;;23.37;;
16177;SDS011;8195;51.220;9.746;2023-02-15T21:44:51;46.08;;;25.85;;
16177;SDS011;8195;51.220;9.746;2023-02-15T21:54:52;65.47;;;28.47;;
16177;SDS011;8195;51.220;9.746;2023-02-15T22:04:53;104.50;;;29.98;;
16177;SDS011;8195;51.220;9.746;2023-02-15T22:14:53;119.17;;;30.07;;
16177;SDS011;8195;51.220;9.746;2023-02-15T22:24:54;94.83;;;29.30;;
16177;SDS011;8195;51.220;9.746;2023-02-15T22:34:55;72.60;;;27.75;;
16177;SDS011;8195;51.220;9.746;2023-02-15T22:44:55;77.07;;;35.38;;
16177;SDS011;8195;51.220;9.746;2023-02-15T22:54:56;67.70;;;34.17;;
16177;SDS011;8195;51.220;9.746;2023-02-15T23:04:57;57.22;;;33.75;;
16177;SDS011;8195;51.220;9.746;2023-02-15T23:14:57;277.20;;;52.30;;
16177;SDS011;8195;51.220;9.746;2023-02-15T23:24:58;253.30;;;50.80;;
16177;SDS011;8195;51.220;9.746;2023-02-15T23:34:59;88.10;;;30.88;;
16177;SDS011;8195;51.220;9.746;2023-02-15T23:44:59;181.27;;;45.95;;
16177;SDS011;8195;51.220;9.746;2023-02-15T23:55:01;296.30;;;61.53;;
